Time;durP1;ratioP1;P1;durP2;ratioP2;P2;SDS_P1;SDS_P2;PMS_P1;PMS_P2;Temp;Humidity;BMP_temperature;BMP_pressure;BME280_temperature;BME280_humidity;BME280_pressure;Samples;Min_cycle;Max_cycle;Signal;HPM_P1;HPM_P2
2024/03/05 00:00:13;;;;;;;22.63;11.90;;;4.90;99.90;;;;;;4990554;28;20169;-84
2024/03/05 00:02:43;;;;;;;24.90;13.10;;;4.90;99.90;;;;;;4974898;28;20027;-84
2024/03/05 00:05:13;;;;;;;25.80;13.63;;;4.80;99.90;;;;;;4975409;28;20027;-84
2024/03/05 00:07:43;;;;;;;29.92;13.77;;;4.80;99.90;;;;;;4985725;28;20031;-84
2024/03/05 00:10:08;;;;;;;27.83;13.10;;;4.80;99.90;;;;;;4980205;28;20073;-83
2024/03/05 00:12:34;;;;;;;24.58;12.75;;;4.70;99.90;;;;;;4976931;28;20026;-84
2024/03/05 00:15:00;;;;;;;25.00;13.38;;;4.70;99.90;;;;;;4977761;28;20117;-84
2024/03/05 00:17:26;;;;;;;23.23;12.50;;;4.70;99.90;;;;;;4976434;28;20117;-84
2024/03/05 00:19:53;;;;;;;28.42;14.15;;;4.70;99.90;;;;;;4974261;28;20058;-83
2024/03/05 00:22:19;;;;;;;26.98;12.82;;;4.60;99.90;;;;;;4959864;28;20135;-84
2024/03/05 00:24:45;;;;;;;27.42;14.13;;;4.60;99.90;;;;;;4972176;28;20434;-84
2024/03/05 00:27:11;;;;;;;23.85;12.07;;;4.60;99.90;;;;;;4993275;28;20031;-85
2024/03/05 00:29:36;;;;;;;20.25;10.88;;;4.50;99.90;;;;;;4977570;28;20080;-84
2024/03/05 00:32:02;;;;;;;23.95;11.32;;;4.50;99.90;;;;;;4977318;28;20073;-85
2024/03/05 00:34:29;;;;;;;23.92;12.85;;;4.50;99.90;;;;;;4971285;28;20479;-85
2024/03/05 00:36:55;;;;;;;18.98;10.65;;;4.50;99.90;;;;;;4968444;28;20073;-85
2024/03/05 00:39:20;;;;;;;21.65;10.77;;;4.50;99.90;;;;;;4972471;28;20069;-85
2024/03/05 00:41:46;;;;;;;22.00;11.23;;;4.40;99.90;;;;;;4976865;28;20034;-85
2024/03/05 00:44:12;;;;;;;22.98;11.85;;;4.40;99.90;;;;;;4981246;28;20117;-85
2024/03/05 00:46:37;;;;;;;27.30;13.50;;;4.40;99.90;;;;;;4971789;28;20026;-85
2024/03/05 00:49:03;;;;;;;24.80;13.98;;;4.40;99.90;;;;;;4971355;28;20014;-85
2024/03/05 00:51:29;;;;;;;30.58;14.13;;;4.40;99.90;;;;;;4975375;28;20030;-85
2024/03/05 00:53:55;;;;;;;22.02;10.85;;;4.40;99.90;;;;;;4968546;28;20022;-85
2024/03/05 00:56:20;;;;;;;23.02;11.75;;;4.40;99.90;;;;;;4976808;28;20034;-85
2024/03/05 00:58:46;;;;;;;38.75;16.83;;;4.40;99.90;;;;;;4976742;28;20041;-86
2024/03/05 01:01:12;;;;;;;32.53;16.38;;;4.40;99.90;;;;;;4991951;28;20119;-86
2024/03/05 01:03:37;;;;;;;33.88;16.23;;;4.50;99.90;;;;;;4975123;28;20058;-85
2024/03/05 01:06:03;;;;;;;30.30;14.65;;;4.50;99.90;;;;;;4983109;28;20034;-85
2024/03/05 01:08:30;;;;;;;31.70;15.35;;;4.60;99.90;;;;;;4971101;28;20031;-85
2024/03/05 01:10:56;;;;;;;34.40;17.05;;;4.60;99.90;;;;;;4969034;28;20037;-85
2024/03/05 01:13:22;;;;;;;34.78;17.00;;;4.60;99.90;;;;;;4975468;28;20030;-85
2024/03/05 01:15:48;;;;;;;37.47;16.77;;;4.60;99.90;;;;;;4975393;28;20042;-85
2024/03/05 01:18:13;;;;;;;30.80;15.07;;;4.70;99.90;;;;;;4967649;28;20030;-85
2024/03/05 01:20:41;;;;;;;34.85;15.85;;;4.60;99.90;;;;;;4971213;28;20120;-85
2024/03/05 01:23:10;;;;;;;33.35;16.35;;;4.60;99.90;;;;;;4993112;28;20026;-85
2024/03/05 01:25:37;;;;;;;36.33;17.75;;;4.70;99.90;;;;;;4964217;28;20030;-86
2024/03/05 01:28:04;;;;;;;38.75;17.45;;;4.60;99.90;;;;;;4968354;28;20038;-85
2024/03/05 01:30:29;;;;;;;36.28;16.75;;;4.70;99.90;;;;;;4977060;28;20513;-85
2024/03/05 01:32:57;;;;;;;38.53;17.85;;;4.60;99.90;;;;;;4975077;28;20066;-86
2024/03/05 01:35:23;;;;;;;34.60;17.75;;;4.60;99.90;;;;;;4975998;28;20046;-85
2024/03/05 01:37:48;;;;;;;41.33;19.75;;;4.60;99.90;;;;;;4976842;28;20162;-86
2024/03/05 01:40:14;;;;;;;37.45;18.55;;;4.60;99.90;;;;;;4974714;28;20026;-86
2024/03/05 01:42:41;;;;;;;45.30;20.08;;;4.60;99.90;;;;;;4973384;28;20066;-85
2024/03/05 01:45:07;;;;;;;39.08;18.67;;;4.60;99.90;;;;;;4961995;28;20026;-85
2024/03/05 01:47:33;;;;;;;36.78;19.17;;;4.60;99.90;;;;;;4968241;28;20160;-85
2024/03/05 01:50:00;;;;;;;43.90;19.88;;;4.60;99.90;;;;;;4976084;28;20113;-85
2024/03/05 01:52:27;;;;;;;43.00;19.17;;;4.60;99.90;;;;;;4992870;28;20026;-85
2024/03/05 01:54:55;;;;;;;43.15;20.70;;;4.70;99.90;;;;;;4991864;28;20044;-85
2024/03/05 01:57:24;;;;;;;42.63;19.90;;;4.70;99.90;;;;;;4970498;28;20035;-85
2024/03/05 01:59:50;;;;;;;36.75;17.23;;;4.70;99.90;;;;;;4993240;28;20042;-85
2024/03/05 02:02:15;;;;;;;40.53;18.88;;;4.70;99.90;;;;;;4984872;28;20031;-85
2024/03/05 02:04:44;;;;;;;39.53;18.55;;;4.70;99.90;;;;;;4957174;28;20026;-85
2024/03/05 02:07:10;;;;;;;37.72;17.88;;;4.80;99.90;;;;;;4969012;28;20030;-85
2024/03/05 02:09:36;;;;;;;38.10;18.45;;;4.80;99.90;;;;;;4974371;28;20033;-85
2024/03/05 02:12:03;;;;;;;41.65;18.38;;;4.80;99.90;;;;;;4981222;28;20034;-85
2024/03/05 02:14:32;;;;;;;37.00;18.42;;;4.80;99.90;;;;;;4982155;28;20336;-85
2024/03/05 02:16:59;;;;;;;44.72;20.08;;;4.90;99.90;;;;;;4986974;28;20042;-86
2024/03/05 02:19:26;;;;;;;45.67;19.98;;;5.00;99.90;;;;;;4988017;28;20019;-85
2024/03/05 02:22:02;;;;;;;46.78;21.55;;;5.00;99.90;;;;;;4986411;28;20034;-86
2024/03/05 02:24:28;;;;;;;42.17;20.30;;;5.10;99.90;;;;;;4978007;28;20045;-85
2024/03/05 02:26:54;;;;;;;53.17;23.17;;;5.20;99.90;;;;;;4974423;28;20117;-85
2024/03/05 02:29:20;;;;;;;50.13;21.98;;;5.20;99.90;;;;;;4995805;28;20117;-85
2024/03/05 02:31:45;;;;;;;53.10;23.33;;;5.20;99.90;;;;;;4966973;28;20035;-85
2024/03/05 02:34:11;;;;;;;48.70;21.38;;;5.30;99.90;;;;;;4966154;28;20035;-85
2024/03/05 02:36:37;;;;;;;46.88;21.85;;;5.30;99.90;;;;;;4978919;28;20041;-85
2024/03/05 02:39:04;;;;;;;52.00;23.58;;;5.30;99.90;;;;;;4967328;28;20031;-85
2024/03/05 02:41:30;;;;;;;52.00;22.77;;;5.30;99.90;;;;;;4990616;28;20037;-85
2024/03/05 02:43:56;;;;;;;50.22;22.48;;;5.30;99.90;;;;;;4970161;28;20027;-86
2024/03/05 02:46:22;;;;;;;48.72;22.35;;;5.30;99.90;;;;;;4973412;28;20026;-85
2024/03/05 02:48:48;;;;;;;54.65;22.95;;;5.40;99.90;;;;;;4968373;28;20360;-86
2024/03/05 02:51:14;;;;;;;57.83;25.08;;;5.40;99.90;;;;;;4978132;28;20121;-85
2024/03/05 02:53:39;;;;;;;47.78;23.02;;;5.40;99.90;;;;;;4977233;28;20022;-86
2024/03/05 02:56:10;;;;;;;59.72;26.50;;;5.50;99.90;;;;;;4971660;28;20026;-86
2024/03/05 02:58:35;;;;;;;57.97;26.17;;;5.50;99.90;;;;;;4977819;28;20465;-85
2024/03/05 03:01:02;;;;;;;55.70;25.67;;;5.50;99.90;;;;;;4979032;28;20053;-85
2024/03/05 03:03:27;;;;;;;56.25;24.85;;;5.50;99.90;;;;;;4972718;28;20035;-85
2024/03/05 03:05:53;;;;;;;55.05;24.63;;;5.60;99.90;;;;;;4975087;28;20088;-85
2024/03/05 03:08:18;;;;;;;55.78;26.08;;;5.60;99.90;;;;;;4979014;28;20126;-85
2024/03/05 03:10:44;;;;;;;53.58;25.52;;;5.60;99.90;;;;;;4996673;28;20386;-85
2024/03/05 03:13:09;;;;;;;52.40;26.02;;;5.70;99.90;;;;;;4976270;28;20558;-85
2024/03/05 03:15:35;;;;;;;60.08;27.63;;;5.70;99.90;;;;;;4965218;28;20117;-85
2024/03/05 03:18:00;;;;;;;60.15;27.52;;;5.70;99.90;;;;;;4982963;28;20038;-85
2024/03/05 03:20:26;;;;;;;62.35;27.10;;;5.80;99.90;;;;;;4978841;28;20018;-85
2024/03/05 03:22:52;;;;;;;57.97;26.48;;;5.80;99.90;;;;;;4971947;28;20058;-85
2024/03/05 03:25:18;;;;;;;60.17;26.73;;;5.90;99.90;;;;;;4973857;28;20072;-85
2024/03/05 03:27:44;;;;;;;53.95;25.02;;;5.90;99.90;;;;;;4997451;28;20037;-85
2024/03/05 03:30:17;;;;;;;58.55;25.73;;;6.00;99.90;;;;;;4978550;28;20019;-85
2024/03/05 03:32:43;;;;;;;56.03;27.42;;;6.00;99.90;;;;;;4978274;28;20528;-85
2024/03/05 03:35:10;;;;;;;52.22;26.13;;;6.00;99.90;;;;;;4991723;28;20026;-85
2024/03/05 03:37:36;;;;;;;64.55;28.70;;;6.10;99.90;;;;;;4971306;28;20046;-86
2024/03/05 03:40:07;;;;;;;62.50;29.77;;;6.00;99.90;;;;;;4972508;28;20113;-86
2024/03/05 03:42:32;;;;;;;57.55;27.58;;;6.10;99.90;;;;;;4975837;28;20041;-86
2024/03/05 03:44:58;;;;;;;57.50;28.20;;;6.10;99.90;;;;;;4992113;28;20479;-86
2024/03/05 03:47:23;;;;;;;61.90;29.80;;;6.10;99.90;;;;;;4974770;28;20392;-86
2024/03/05 03:49:49;;;;;;;61.83;28.63;;;6.10;99.90;;;;;;4971518;28;20498;-86
2024/03/05 03:52:15;;;;;;;62.13;28.00;;;6.10;99.90;;;;;;4977835;28;20014;-85
2024/03/05 03:54:41;;;;;;;59.47;28.08;;;6.20;99.90;;;;;;4970083;28;20039;-86
2024/03/05 03:57:08;;;;;;;56.92;25.98;;;6.20;99.90;;;;;;4975127;28;20042;-85
2024/03/05 03:59:34;;;;;;;54.10;26.05;;;6.20;99.90;;;;;;4974012;28;20058;-86
2024/03/05 04:01:59;;;;;;;65.65;28.48;;;6.20;99.90;;;;;;4973417;28;20031;-85
2024/03/05 04:04:25;;;;;;;54.92;26.58;;;6.30;99.90;;;;;;4969543;28;20033;-85
2024/03/05 04:06:51;;;;;;;63.67;28.10;;;6.30;99.90;;;;;;4966435;28;20110;-86
2024/03/05 04:09:16;;;;;;;61.08;29.67;;;6.30;99.90;;;;;;4967628;28;20030;-86
2024/03/05 04:11:42;;;;;;;60.50;29.05;;;6.30;99.90;;;;;;4984867;28;20099;-86
2024/03/05 04:14:08;;;;;;;60.25;28.48;;;6.30;99.90;;;;;;4973908;28;20031;-85
2024/03/05 04:16:34;;;;;;;60.88;27.50;;;6.40;99.90;;;;;;4972131;28;20122;-85
2024/03/05 04:19:00;;;;;;;64.22;29.70;;;6.40;99.90;;;;;;4965910;28;20074;-86
2024/03/05 04:21:26;;;;;;;65.75;29.20;;;6.50;99.90;;;;;;4992520;28;20558;-86
2024/03/05 04:23:52;;;;;;;63.95;29.05;;;6.50;99.90;;;;;;4970706;28;20110;-87
2024/03/05 04:26:23;;;;;;;59.40;28.25;;;6.50;99.90;;;;;;4964642;28;20103;-87
2024/03/05 04:28:54;;;;;;;55.50;27.75;;;6.50;99.90;;;;;;4963994;28;20035;-85
2024/03/05 04:31:23;;;;;;;56.63;27.92;;;6.50;99.90;;;;;;4968711;28;20031;-86
2024/03/05 04:33:49;;;;;;;66.25;28.92;;;6.50;99.90;;;;;;4973407;28;20075;-85
2024/03/05 04:36:17;;;;;;;64.65;29.08;;;6.50;99.90;;;;;;4973906;28;20398;-85
2024/03/05 04:38:44;;;;;;;61.65;29.00;;;6.50;99.90;;;;;;4971629;28;20031;-86
2024/03/05 04:41:15;;;;;;;64.55;29.63;;;6.50;99.90;;;;;;4976538;28;20038;-85
2024/03/05 04:43:41;;;;;;;67.82;29.17;;;6.60;99.90;;;;;;4973746;28;20026;-85
2024/03/05 04:46:08;;;;;;;64.63;27.63;;;6.50;99.90;;;;;;4967108;28;20022;-86
2024/03/05 04:48:33;;;;;;;57.80;27.35;;;6.60;99.90;;;;;;4966216;28;20403;-85
2024/03/05 04:50:59;;;;;;;58.33;25.90;;;6.60;99.90;;;;;;4971129;28;20031;-86
2024/03/05 04:53:25;;;;;;;55.15;27.60;;;6.60;99.90;;;;;;4968750;28;20039;-85
2024/03/05 04:55:51;;;;;;;59.78;28.80;;;6.60;99.90;;;;;;4968730;28;20484;-86
2024/03/05 04:58:18;;;;;;;67.55;29.17;;;6.50;99.90;;;;;;4972059;28;20022;-86
2024/03/05 05:00:44;;;;;;;75.90;30.92;;;6.50;99.90;;;;;;4976071;28;20505;-85
2024/03/05 05:03:10;;;;;;;67.63;29.73;;;6.60;99.90;;;;;;4974773;28;20026;-85
2024/03/05 05:05:35;;;;;;;62.80;27.45;;;6.60;99.90;;;;;;4974665;28;20105;-86
2024/03/05 05:08:03;;;;;;;59.22;28.25;;;6.60;99.90;;;;;;4973493;28;20060;-86
2024/03/05 05:10:29;;;;;;;62.90;28.02;;;6.60;99.90;;;;;;4990385;28;20029;-85
2024/03/05 05:12:54;;;;;;;62.85;27.42;;;6.60;99.90;;;;;;4970092;28;20022;-85
2024/03/05 05:15:20;;;;;;;61.20;27.42;;;6.60;99.90;;;;;;4962777;28;20107;-86
2024/03/05 05:17:46;;;;;;;64.80;28.35;;;6.60;99.90;;;;;;4988029;28;20097;-85
2024/03/05 05:20:15;;;;;;;60.47;26.13;;;6.60;99.90;;;;;;4974159;28;20480;-85
2024/03/05 05:22:44;;;;;;;62.22;28.70;;;6.60;99.90;;;;;;4968723;28;20039;-85
2024/03/05 05:25:10;;;;;;;54.28;26.38;;;6.60;99.90;;;;;;4966810;28;20037;-85
2024/03/05 05:27:36;;;;;;;56.47;27.00;;;6.60;99.90;;;;;;4965882;28;20069;-85
2024/03/05 05:30:06;;;;;;;72.65;30.38;;;6.60;99.90;;;;;;4986056;28;20054;-86
2024/03/05 05:32:35;;;;;;;62.90;29.38;;;6.60;99.90;;;;;;4988996;28;20031;-86
2024/03/05 05:35:03;;;;;;;62.67;27.20;;;6.60;99.90;;;;;;4978553;28;20081;-87
2024/03/05 05:37:28;;;;;;;61.25;28.52;;;6.70;99.90;;;;;;4968859;28;20044;-85
2024/03/05 05:39:54;;;;;;;62.55;27.42;;;6.60;99.90;;;;;;4973034;28;20390;-86
2024/03/05 05:42:23;;;;;;;63.80;30.77;;;6.60;99.90;;;;;;4970673;28;20031;-85
2024/03/05 05:44:49;;;;;;;64.57;28.08;;;6.60;99.90;;;;;;4974554;28;20042;-86
2024/03/05 05:47:14;;;;;;;69.75;31.23;;;6.60;99.90;;;;;;4972254;28;20069;-86
2024/03/05 05:49:40;;;;;;;68.47;28.98;;;6.70;99.90;;;;;;4973212;28;20498;-85
2024/03/05 05:52:06;;;;;;;63.30;28.02;;;6.60;99.90;;;;;;4967818;28;20022;-85
2024/03/05 05:54:44;;;;;;;72.28;30.05;;;6.70;99.90;;;;;;4970074;28;20121;-85
2024/03/05 05:57:10;;;;;;;64.40;28.10;;;6.70;99.90;;;;;;4968474;28;20073;-85
2024/03/05 05:59:37;;;;;;;69.72;29.70;;;6.70;99.90;;;;;;4968504;28;20415;-85
2024/03/05 06:02:08;;;;;;;68.60;29.20;;;6.70;99.90;;;;;;4971788;28;20125;-85
2024/03/05 06:04:38;;;;;;;76.38;30.00;;;6.70;99.90;;;;;;4957291;28;20046;-85
2024/03/05 06:07:03;;;;;;;71.38;30.20;;;6.70;99.90;;;;;;4971888;28;20038;-85
2024/03/05 06:09:33;;;;;;;68.38;30.63;;;6.70;99.90;;;;;;4975764;28;20081;-85
2024/03/05 06:12:00;;;;;;;80.07;31.23;;;6.70;99.90;;;;;;4974118;28;20169;-85
2024/03/05 06:14:25;;;;;;;83.30;32.17;;;6.80;99.90;;;;;;4976108;28;20026;-86
2024/03/05 06:16:51;;;;;;;78.50;32.42;;;6.80;99.90;;;;;;4975289;28;20121;-85
2024/03/05 06:19:16;;;;;;;75.90;32.08;;;6.90;99.90;;;;;;4975464;28;20379;-85
2024/03/05 06:21:42;;;;;;;82.18;32.35;;;6.90;99.90;;;;;;4956902;28;20086;-85
2024/03/05 06:24:08;;;;;;;77.88;31.60;;;6.90;99.90;;;;;;4966634;28;20487;-85
2024/03/05 06:26:37;;;;;;;71.18;29.15;;;6.90;99.90;;;;;;4970770;28;20062;-85
2024/03/05 06:29:06;;;;;;;79.57;31.33;;;6.90;99.90;;;;;;4971788;28;20089;-85
2024/03/05 06:31:36;;;;;;;77.97;30.90;;;7.00;99.90;;;;;;4973364;28;20034;-85
2024/03/05 06:34:05;;;;;;;93.40;34.10;;;6.90;99.90;;;;;;4966884;28;20379;-86
2024/03/05 06:36:34;;;;;;;65.57;28.92;;;6.90;99.90;;;;;;4981968;28;20035;-85
2024/03/05 06:39:07;;;;;;;76.00;31.38;;;6.90;99.90;;;;;;4974474;28;20525;-85
2024/03/05 06:41:32;;;;;;;75.10;29.27;;;6.90;99.90;;;;;;4975637;28;20038;-85
2024/03/05 06:44:09;;;;;;;73.68;30.80;;;6.90;99.90;;;;;;4968936;28;20026;-84
2024/03/05 06:46:40;;;;;;;75.63;30.05;;;6.90;99.90;;;;;;4972626;28;20068;-85
2024/03/05 06:49:14;;;;;;;81.53;31.58;;;6.90;99.90;;;;;;4990519;28;20146;-85
2024/03/05 06:51:53;;;;;;;80.68;32.22;;;6.90;99.90;;;;;;4979749;28;20029;-85
2024/03/05 06:57:03;;;;;;;87.78;34.35;;;6.90;99.90;;;;;;4983641;28;20105;-85
2024/03/05 06:59:29;;;;;;;88.25;35.85;;;6.90;99.90;;;;;;4974943;28;20046;-86
2024/03/05 07:01:55;;;;;;;86.05;33.58;;;6.90;99.90;;;;;;4975024;28;20038;-85
2024/03/05 07:04:22;;;;;;;81.20;32.72;;;6.90;99.90;;;;;;4984946;28;20029;-85
2024/03/05 07:06:49;;;;;;;89.10;33.88;;;6.90;99.90;;;;;;4988699;28;20441;-85
2024/03/05 07:09:15;;;;;;;82.80;32.67;;;7.00;99.90;;;;;;4975421;28;20496;-85
2024/03/05 07:11:41;;;;;;;95.63;34.83;;;7.00;99.90;;;;;;4972913;28;20088;-86
2024/03/05 07:14:07;;;;;;;104.72;37.97;;;7.00;99.90;;;;;;4976075;28;20026;-86
2024/03/05 07:16:33;;;;;;;99.97;37.80;;;7.10;99.90;;;;;;4978356;28;20054;-85
2024/03/05 07:19:01;;;;;;;97.65;38.33;;;7.20;99.90;;;;;;4972376;28;20034;-85
2024/03/05 07:21:30;;;;;;;99.97;37.42;;;7.30;99.90;;;;;;4994964;28;20679;-85
2024/03/05 07:23:57;;;;;;;95.00;37.85;;;7.30;99.90;;;;;;4963850;28;20054;-85
2024/03/05 07:26:23;;;;;;;83.53;34.25;;;7.30;99.90;;;;;;4977471;28;20034;-85
2024/03/05 07:28:49;;;;;;;92.85;36.03;;;7.40;99.90;;;;;;4974479;28;20395;-85
2024/03/05 07:31:15;;;;;;;95.18;34.13;;;7.40;99.90;;;;;;4978662;28;20125;-85
2024/03/05 07:33:42;;;;;;;104.80;36.10;;;7.50;99.90;;;;;;4978140;28;20438;-85
2024/03/05 07:36:07;;;;;;;89.03;35.03;;;7.50;99.90;;;;;;4976380;28;20049;-85
2024/03/05 07:38:33;;;;;;;90.93;36.25;;;7.60;99.90;;;;;;4978482;28;20117;-85
2024/03/05 07:40:59;;;;;;;94.18;34.78;;;7.60;99.90;;;;;;4977625;28;20022;-86
2024/03/05 07:43:24;;;;;;;82.28;34.10;;;7.60;99.90;;;;;;4995784;28;20026;-85
2024/03/05 07:45:50;;;;;;;86.68;34.10;;;7.70;99.90;;;;;;4964612;28;20054;-85
2024/03/05 07:48:15;;;;;;;86.65;35.95;;;7.70;99.90;;;;;;4965467;28;20031;-85
2024/03/05 07:50:42;;;;;;;86.97;33.53;;;7.70;99.90;;;;;;4973730;28;20027;-84
2024/03/05 07:53:08;;;;;;;94.03;35.25;;;7.70;99.90;;;;;;4958668;28;20420;-84
2024/03/05 07:55:37;;;;;;;106.78;36.67;;;7.80;99.90;;;;;;4971813;28;20031;-85
2024/03/05 07:58:03;;;;;;;99.80;38.20;;;7.90;99.90;;;;;;4972535;28;20134;-86
2024/03/05 08:00:29;;;;;;;95.90;37.17;;;7.80;99.90;;;;;;4975472;28;20046;-85
2024/03/05 08:02:55;;;;;;;96.82;37.70;;;7.90;99.90;;;;;;4959655;28;20035;-85
2024/03/05 08:05:22;;;;;;;114.78;39.35;;;7.90;99.90;;;;;;4970847;28;20472;-85
2024/03/05 08:07:58;;;;;;;105.10;38.08;;;7.90;99.90;;;;;;4970140;28;20019;-86
2024/03/05 08:10:25;;;;;;;99.72;37.58;;;8.00;99.90;;;;;;4975325;28;20050;-86
2024/03/05 08:12:54;;;;;;;97.55;36.55;;;8.00;99.90;;;;;;4976357;28;20106;-86
2024/03/05 08:15:20;;;;;;;100.22;38.35;;;8.10;99.90;;;;;;4975833;28;20035;-87
2024/03/05 08:17:47;;;;;;;107.90;38.85;;;8.10;99.90;;;;;;4966284;28;20043;-86
2024/03/05 08:20:18;;;;;;;113.18;42.78;;;8.10;99.90;;;;;;4982078;28;20556;-86
2024/03/05 08:22:47;;;;;;;104.30;42.03;;;8.10;99.90;;;;;;4979931;28;20035;-86
2024/03/05 08:25:15;;;;;;;103.57;39.22;;;8.10;99.90;;;;;;4976070;28;20045;-86
2024/03/05 08:27:51;;;;;;;105.15;40.15;;;8.20;99.90;;;;;;4977120;28;20023;-86
2024/03/05 08:30:19;;;;;;;107.10;42.70;;;8.20;99.90;;;;;;4965274;28;20118;-86
2024/03/05 08:32:46;;;;;;;100.47;41.38;;;8.20;99.90;;;;;;4976748;28;20032;-86
2024/03/05 08:35:12;;;;;;;100.28;40.00;;;8.20;99.90;;;;;;4975883;28;20370;-86
2024/03/05 08:37:46;;;;;;;97.65;39.03;;;8.30;99.90;;;;;;4976725;28;20089;-86
2024/03/05 08:40:21;;;;;;;109.50;42.28;;;8.30;99.90;;;;;;4990236;28;20049;-87
2024/03/05 08:42:48;;;;;;;98.43;39.90;;;8.30;99.90;;;;;;4974674;28;20074;-86
2024/03/05 08:45:19;;;;;;;111.50;46.45;;;8.30;99.90;;;;;;4974271;28;20062;-85
2024/03/05 08:47:47;;;;;;;95.90;40.13;;;8.30;99.90;;;;;;4974118;28;20027;-85
2024/03/05 08:50:13;;;;;;;106.38;42.20;;;8.30;99.90;;;;;;4958796;28;20028;-85
2024/03/05 08:52:40;;;;;;;98.45;40.88;;;8.30;99.90;;;;;;4970221;28;20027;-85
2024/03/05 08:55:08;;;;;;;101.35;40.78;;;8.40;99.90;;;;;;4973918;28;20027;-85
2024/03/05 08:57:37;;;;;;;101.85;40.85;;;8.40;99.90;;;;;;4974009;28;20491;-85
2024/03/05 09:00:04;;;;;;;100.93;41.60;;;8.50;99.90;;;;;;4974142;28;20043;-86
2024/03/05 09:02:30;;;;;;;96.95;41.17;;;8.50;99.90;;;;;;4987284;28;20034;-85
2024/03/05 09:04:56;;;;;;;100.32;40.30;;;8.50;99.90;;;;;;4973794;28;20031;-86
2024/03/05 09:07:22;;;;;;;89.43;38.78;;;8.60;99.90;;;;;;4973804;28;20038;-86
2024/03/05 09:09:47;;;;;;;99.40;39.00;;;8.60;99.90;;;;;;4970084;28;20034;-85
2024/03/05 09:12:14;;;;;;;105.78;42.40;;;8.60;99.90;;;;;;4955962;28;20038;-86
2024/03/05 09:14:41;;;;;;;96.78;38.40;;;8.60;99.90;;;;;;4966710;28;20472;-86
2024/03/05 09:17:08;;;;;;;92.70;39.38;;;8.60;99.90;;;;;;4978054;28;20042;-86
2024/03/05 09:19:33;;;;;;;94.15;39.10;;;8.70;99.90;;;;;;4975222;28;20038;-85
2024/03/05 09:22:04;;;;;;;84.55;38.10;;;8.60;99.90;;;;;;4969758;28;20034;-86
2024/03/05 09:24:30;;;;;;;89.50;39.63;;;8.60;99.90;;;;;;4974686;28;20019;-86
2024/03/05 09:26:55;;;;;;;88.80;37.28;;;8.60;99.90;;;;;;4974427;28;20180;-86
2024/03/05 09:29:21;;;;;;;92.43;38.58;;;8.70;99.90;;;;;;4989530;28;20081;-86
2024/03/05 09:31:46;;;;;;;93.90;39.38;;;8.70;99.90;;;;;;4970288;28;20084;-85
2024/03/05 09:34:12;;;;;;;95.03;40.17;;;8.70;99.90;;;;;;4955126;28;20484;-86
2024/03/05 09:36:39;;;;;;;93.15;40.58;;;8.70;99.90;;;;;;4961773;28;20066;-86
2024/03/05 09:39:09;;;;;;;91.18;39.75;;;8.80;99.90;;;;;;4971152;28;20035;-86
2024/03/05 09:41:40;;;;;;;86.03;38.67;;;8.80;99.90;;;;;;4970895;28;20542;-86
2024/03/05 09:44:07;;;;;;;89.55;40.47;;;8.80;99.90;;;;;;4963547;28;20101;-86
2024/03/05 09:46:36;;;;;;;87.75;38.75;;;8.80;99.90;;;;;;4974006;28;20042;-86
2024/03/05 09:49:03;;;;;;;80.53;37.40;;;8.80;99.90;;;;;;4973127;28;20395;-86
2024/03/05 09:51:29;;;;;;;83.93;35.72;;;8.80;99.90;;;;;;4967182;28;20026;-86
2024/03/05 09:53:56;;;;;;;81.75;38.58;;;8.80;99.90;;;;;;4972829;28;20037;-86
2024/03/05 09:56:22;;;;;;;85.00;38.63;;;8.80;99.90;;;;;;4973844;28;20407;-86
2024/03/05 09:58:48;;;;;;;75.60;33.88;;;8.80;99.90;;;;;;4950374;28;20047;-86
2024/03/05 10:01:14;;;;;;;74.43;33.58;;;8.80;99.90;;;;;;4937770;28;20112;-85
2024/03/05 10:03:41;;;;;;;77.63;35.13;;;8.70;99.90;;;;;;4951697;28;20118;-85
2024/03/05 10:06:09;;;;;;;80.72;37.15;;;8.70;99.90;;;;;;4952759;28;20023;-86
2024/03/05 10:08:35;;;;;;;82.20;36.58;;;8.70;99.90;;;;;;4946423;29;20107;-86
2024/03/05 10:11:03;;;;;;;77.55;35.53;;;8.60;99.90;;;;;;4941056;28;20043;-86
2024/03/05 10:13:32;;;;;;;78.90;36.60;;;8.60;99.90;;;;;;4962145;28;20027;-85
2024/03/05 10:16:15;;;;;;;82.32;36.55;;;8.60;99.90;;;;;;4944890;28;20031;-86
2024/03/05 10:18:41;;;;;;;79.53;34.95;;;8.60;99.90;;;;;;4962951;28;20118;-86
2024/03/05 10:21:18;;;;;;;80.78;36.78;;;8.60;99.90;;;;;;4945704;28;20033;-85
2024/03/05 10:23:46;;;;;;;71.80;35.05;;;8.60;99.90;;;;;;4944332;28;20102;-86
2024/03/05 10:26:19;;;;;;;74.00;35.97;;;8.60;99.90;;;;;;4954441;28;20027;-85
2024/03/05 10:28:45;;;;;;;74.60;35.78;;;8.70;99.90;;;;;;4966076;28;20023;-85
2024/03/05 10:31:18;;;;;;;73.20;34.45;;;8.60;99.90;;;;;;4954054;28;20031;-86
2024/03/05 10:33:46;;;;;;;69.63;35.22;;;8.70;99.90;;;;;;4952883;29;20118;-85
2024/03/05 10:36:12;;;;;;;69.93;36.53;;;8.70;99.90;;;;;;4953089;29;20038;-86
2024/03/05 10:38:38;;;;;;;68.78;34.28;;;8.70;99.90;;;;;;4953504;28;20110;-86
2024/03/05 10:41:07;;;;;;;76.05;36.67;;;8.70;99.90;;;;;;4967273;28;20556;-85
2024/03/05 10:43:33;;;;;;;74.32;37.45;;;8.70;99.90;;;;;;4953554;28;20045;-85
2024/03/05 10:45:59;;;;;;;72.57;35.40;;;8.70;99.90;;;;;;4971442;28;20106;-85
2024/03/05 10:48:25;;;;;;;73.53;36.83;;;8.70;99.90;;;;;;4963119;28;20035;-85
2024/03/05 10:50:56;;;;;;;76.28;36.63;;;8.60;99.90;;;;;;4956671;29;20035;-85
2024/03/05 10:53:22;;;;;;;66.78;32.97;;;8.70;99.90;;;;;;4956477;28;20252;-85
2024/03/05 10:55:50;;;;;;;64.60;33.97;;;8.70;99.90;;;;;;4963783;28;20038;-85
2024/03/05 10:58:36;;;;;;;65.10;32.92;;;8.70;99.90;;;;;;4956842;28;20035;-85
2024/03/05 11:01:06;;;;;;;61.80;32.38;;;8.80;99.90;;;;;;4985188;28;20094;-85
2024/03/05 11:03:44;;;;;;;64.22;31.25;;;8.90;99.90;;;;;;4978571;28;20030;-85
2024/03/05 11:06:12;;;;;;;58.65;28.98;;;9.00;99.90;;;;;;4995619;28;20133;-85
2024/03/05 11:08:38;;;;;;;47.65;25.88;;;9.10;99.90;;;;;;4978853;28;20027;-84
2024/03/05 11:11:11;;;;;;;45.50;24.02;;;9.10;99.90;;;;;;4978893;28;20706;-84
2024/03/05 11:13:39;;;;;;;40.10;22.55;;;9.10;99.90;;;;;;4978794;28;20038;-84
2024/03/05 11:16:06;;;;;;;39.55;23.23;;;9.20;99.90;;;;;;4974651;28;20407;-84
2024/03/05 11:18:36;;;;;;;45.10;23.35;;;9.30;99.90;;;;;;4976093;28;20582;-85
2024/03/05 11:21:08;;;;;;;40.70;22.45;;;9.40;99.90;;;;;;4991222;28;20023;-85
2024/03/05 11:23:36;;;;;;;;;;;9.40;99.90;;;;;;4995032;28;20034;-85
2024/03/05 11:26:07;;;;;;;36.30;20.10;;;9.40;99.90;;;;;;4974781;28;19922;-85
2024/03/05 11:28:33;;;;;;;39.42;22.75;;;9.40;99.90;;;;;;4963064;28;20569;-84
2024/03/05 11:31:19;;;;;;;43.28;23.70;;;9.30;99.90;;;;;;4977497;28;20482;-85
2024/03/05 11:33:46;;;;;;;42.03;23.13;;;9.30;99.90;;;;;;4995207;28;20026;-85
2024/03/05 11:36:24;;;;;;;38.67;21.83;;;9.30;99.90;;;;;;4992600;28;20030;-85
2024/03/05 11:39:14;;;;;;;38.38;22.13;;;9.20;99.90;;;;;;4978719;28;20045;-85
2024/03/05 11:41:44;;;;;;;38.90;21.35;;;9.20;99.90;;;;;;4998845;28;20104;-85
2024/03/05 11:44:14;;;;;;;39.35;23.30;;;9.10;99.90;;;;;;4977988;28;20494;-85
2024/03/05 11:46:43;;;;;;;43.30;25.55;;;9.10;99.90;;;;;;4977633;28;20105;-85
2024/03/05 11:49:09;;;;;;;41.28;23.50;;;9.10;99.90;;;;;;4992004;28;20026;-85
2024/03/05 11:51:35;;;;;;;46.75;25.00;;;9.00;99.90;;;;;;4990437;28;20037;-84
2024/03/05 11:54:01;;;;;;;48.85;26.05;;;9.10;99.90;;;;;;4977899;28;20018;-85
2024/03/05 11:56:26;;;;;;;48.83;26.13;;;9.10;99.90;;;;;;4986821;28;20502;-85
2024/03/05 11:58:55;;;;;;;45.28;25.38;;;9.10;99.90;;;;;;4969948;28;20031;-84
2024/03/05 12:01:23;;;;;;;45.08;26.13;;;9.10;99.90;;;;;;4969944;28;20494;-85
2024/03/05 12:03:58;;;;;;;49.22;27.13;;;9.20;99.90;;;;;;4971084;28;20081;-83
2024/03/05 12:06:24;;;;;;;46.28;27.65;;;9.20;99.90;;;;;;4992691;28;20038;-85
2024/03/05 12:08:50;;;;;;;50.67;28.65;;;9.20;99.90;;;;;;4991013;28;20025;-85
2024/03/05 12:11:16;;;;;;;45.42;27.23;;;9.30;99.90;;;;;;4977155;28;20030;-86
2024/03/05 12:13:45;;;;;;;46.80;26.98;;;9.30;99.90;;;;;;4995152;28;20536;-85
2024/03/05 12:16:13;;;;;;;48.33;26.58;;;9.30;99.90;;;;;;4976192;28;20498;-85
2024/03/05 12:18:40;;;;;;;47.22;28.10;;;9.40;99.90;;;;;;4990324;28;20022;-85
2024/03/05 12:21:06;;;;;;;47.10;25.65;;;9.40;99.90;;;;;;4961243;28;20074;-85
2024/03/05 12:23:35;;;;;;;44.40;26.00;;;9.50;99.90;;;;;;4986919;28;20030;-85
2024/03/05 12:26:01;;;;;;;46.97;25.95;;;9.60;99.90;;;;;;4974654;28;20022;-85
2024/03/05 12:28:27;;;;;;;43.03;25.70;;;9.60;99.90;;;;;;4991357;28;20495;-86
2024/03/05 12:30:55;;;;;;;43.70;24.75;;;9.60;99.90;;;;;;4988299;28;20030;-86
2024/03/05 12:33:26;;;;;;;42.97;25.30;;;9.60;99.90;;;;;;4963650;28;20096;-84
2024/03/05 12:35:52;;;;;;;44.65;25.67;;;9.70;99.90;;;;;;4961862;28;20114;-84
2024/03/05 12:38:17;;;;;;;37.90;22.77;;;9.70;99.90;;;;;;4973332;28;20118;-84